createdAt,value
2019-05-01T00:00:15.725Z,1012.90
2019-05-01T00:01:05.735Z,1012.90
2019-05-01T00:02:05.710Z,1012.88
2019-05-01T00:03:05.730Z,1012.91
2019-05-01T00:04:05.847Z,1012.87
2019-05-01T00:05:05.714Z,1012.89
2019-05-01T00:06:05.644Z,1012.89
2019-05-01T00:07:05.646Z,1012.88
2019-05-01T00:08:05.630Z,1012.89
2019-05-01T00:09:05.596Z,1012.89
2019-05-01T00:10:05.568Z,1012.86
2019-05-01T00:11:05.555Z,1012.90
2019-05-01T00:12:05.533Z,1012.90
2019-05-01T00:13:05.517Z,1012.91
2019-05-01T00:14:05.558Z,1012.93
2019-05-01T00:15:05.479Z,1012.94
2019-05-01T00:16:05.457Z,1012.92
2019-05-01T00:17:05.441Z,1012.94
2019-05-01T00:18:05.425Z,1012.90
2019-05-01T00:19:05.407Z,1012.85
2019-05-01T00:20:05.388Z,1012.83
2019-05-01T00:21:05.370Z,1012.81
2019-05-01T00:22:05.351Z,1012.79
2019-05-01T00:23:05.334Z,1012.75
2019-05-01T00:24:05.317Z,1012.72
2019-05-01T00:25:05.303Z,1012.71
2019-05-01T00:26:05.291Z,1012.65
2019-05-01T00:27:05.315Z,1012.67
2019-05-01T00:28:05.250Z,1012.64
2019-05-01T00:29:05.226Z,1012.64
2019-05-01T00:30:05.213Z,1012.67
2019-05-01T00:31:05.188Z,1012.65
2019-05-01T00:32:05.191Z,1012.62
2019-05-01T00:33:05.155Z,1012.60
2019-05-01T00:34:05.199Z,1012.60
2019-05-01T00:35:05.120Z,1012.58
2019-05-01T00:36:05.105Z,1012.60
2019-05-01T00:37:05.083Z,1012.62
2019-05-01T00:38:05.074Z,1012.60
2019-05-01T00:39:05.049Z,1012.59
2019-05-01T00:40:05.034Z,1012.55
2019-05-01T00:41:05.057Z,1012.59
2019-05-01T00:42:05.018Z,1012.54
2019-05-01T00:43:04.995Z,1012.48
2019-05-01T00:44:04.997Z,1012.49
2019-05-01T00:45:04.941Z,1012.47
2019-05-01T00:46:04.923Z,1012.52
2019-05-01T00:47:04.948Z,1012.43
2019-05-01T00:48:04.886Z,1012.43
2019-05-01T00:49:04.870Z,1012.42
2019-05-01T00:50:04.847Z,1012.39
2019-05-01T00:51:04.832Z,1012.38
2019-05-01T00:52:04.878Z,1012.41
2019-05-01T00:53:04.822Z,1012.37
2019-05-01T00:54:04.778Z,1012.36
2019-05-01T00:55:04.761Z,1012.37
2019-05-01T00:56:04.804Z,1012.38
2019-05-01T00:57:04.749Z,1012.39
2019-05-01T00:58:04.705Z,1012.43
2019-05-01T00:59:04.689Z,1012.42
2019-05-01T01:00:04.668Z,1012.47
2019-05-01T01:01:04.653Z,1012.49
2019-05-01T01:02:04.630Z,1012.51
2019-05-01T01:03:04.616Z,1012.49
2019-05-01T01:04:04.606Z,1012.48
2019-05-01T01:05:04.582Z,1012.48
2019-05-01T01:06:04.564Z,1012.52
2019-05-01T01:07:04.544Z,1012.50
2019-05-01T01:08:04.525Z,1012.43
2019-05-01T01:09:04.543Z,1012.44
2019-05-01T01:10:04.488Z,1012.42
2019-05-01T01:11:04.471Z,1012.39
2019-05-01T01:12:04.449Z,1012.37
2019-05-01T01:13:04.434Z,1012.36
2019-05-01T01:14:04.414Z,1012.34
2019-05-01T01:15:04.433Z,1012.32
2019-05-01T01:16:04.381Z,1012.34
2019-05-01T01:17:04.360Z,1012.32
2019-05-01T01:18:04.342Z,1012.33
2019-05-01T01:19:04.324Z,1012.32
2019-05-01T01:20:04.339Z,1012.34
2019-05-01T01:21:04.286Z,1012.38
2019-05-01T01:22:04.268Z,1012.37
2019-05-01T01:23:04.254Z,1012.36
2019-05-01T01:24:04.232Z,1012.33
2019-05-01T01:25:04.212Z,1012.34
2019-05-01T01:26:04.205Z,1012.29
2019-05-01T01:27:04.176Z,1012.32
2019-05-01T01:28:04.163Z,1012.28
2019-05-01T01:29:04.142Z,1012.27
2019-05-01T01:30:04.128Z,1012.25
2019-05-01T01:31:04.107Z,1012.26
2019-05-01T01:32:04.090Z,1012.25
2019-05-01T01:33:04.068Z,1012.25
2019-05-01T01:34:04.055Z,1012.24
2019-05-01T01:35:04.038Z,1012.24
2019-05-01T01:36:04.019Z,1012.21
2019-05-01T01:37:03.995Z,1012.20
2019-05-01T01:38:03.985Z,1012.18
2019-05-01T01:39:03.962Z,1012.18
2019-05-01T01:40:03.943Z,1012.19
2019-05-01T01:41:03.921Z,1012.20
2019-05-01T01:42:03.925Z,1012.24
2019-05-01T01:43:03.886Z,1012.27
2019-05-01T01:44:03.870Z,1012.22
2019-05-01T01:45:03.878Z,1012.16
2019-05-01T01:46:03.830Z,1012.25
2019-05-01T01:47:03.813Z,1012.24
2019-05-01T01:48:03.792Z,1012.21
2019-05-01T01:49:03.778Z,1012.21
2019-05-01T01:50:03.755Z,1012.23
2019-05-01T01:51:03.741Z,1012.18
2019-05-01T01:52:03.721Z,1012.23
2019-05-01T01:53:03.701Z,1012.20
2019-05-01T01:54:03.684Z,1012.21
2019-05-01T01:55:03.667Z,1012.23
2019-05-01T01:56:03.651Z,1012.25
2019-05-01T01:57:03.628Z,1012.25
2019-05-01T01:58:03.613Z,1012.24
2019-05-01T01:59:03.595Z,1012.29
2019-05-01T02:00:03.580Z,1012.25
2019-05-01T02:01:09.709Z,1012.24
2019-05-01T02:02:03.554Z,1012.21
2019-05-01T02:03:03.520Z,1012.19
2019-05-01T02:04:03.502Z,1012.19
2019-05-01T02:05:03.489Z,1012.19
2019-05-01T02:06:03.466Z,1012.19
2019-05-01T02:07:03.445Z,1012.19
2019-05-01T02:08:03.426Z,1012.18
2019-05-01T02:09:03.415Z,1012.18
2019-05-01T02:10:03.422Z,1012.16
2019-05-01T02:11:03.374Z,1012.17
2019-05-01T02:12:03.351Z,1012.18
2019-05-01T02:13:03.344Z,1012.13
2019-05-01T02:14:03.315Z,1012.12
2019-05-01T02:15:03.297Z,1012.12
2019-05-01T02:16:03.280Z,1012.09
2019-05-01T02:17:03.259Z,1012.12
2019-05-01T02:18:03.245Z,1012.13
2019-05-01T02:19:03.241Z,1012.15
2019-05-01T02:20:03.202Z,1012.10
2019-05-01T02:21:03.191Z,1012.14
2019-05-01T02:22:03.174Z,1012.15
2019-05-01T02:23:03.150Z,1012.15
2019-05-01T02:24:03.135Z,1012.13
2019-05-01T02:25:03.127Z,1012.16
2019-05-01T02:26:03.096Z,1012.14
2019-05-01T02:27:03.082Z,1012.13
2019-05-01T02:28:03.057Z,1012.15
2019-05-01T02:29:03.037Z,1012.14
2019-05-01T02:30:03.025Z,1012.12
2019-05-01T02:31:03.000Z,1012.12
2019-05-01T02:32:02.986Z,1012.11
2019-05-01T02:33:02.964Z,1012.09
2019-05-01T02:34:02.957Z,1012.11
2019-05-01T02:35:02.933Z,1012.07
2019-05-01T02:36:02.926Z,1012.03
2019-05-01T02:37:02.890Z,1012.04
2019-05-01T02:38:02.871Z,1012.03
2019-05-01T02:39:02.859Z,1012.05
2019-05-01T02:40:02.836Z,1012.08
2019-05-01T02:41:02.818Z,1012.07
2019-05-01T02:42:02.803Z,1012.08
2019-05-01T02:43:02.783Z,1012.05
2019-05-01T02:44:02.771Z,1012.08
2019-05-01T02:45:02.743Z,1012.06
2019-05-01T02:46:02.742Z,1012.05
2019-05-01T02:47:02.706Z,1012.04
2019-05-01T02:48:02.691Z,1012.02
2019-05-01T02:49:02.668Z,1012.01
2019-05-01T02:50:02.665Z,1012.02
2019-05-01T02:51:02.635Z,1012.00
2019-05-01T02:52:02.635Z,1012.00
2019-05-01T02:53:02.599Z,1011.99
2019-05-01T02:54:02.579Z,1012.00
2019-05-01T02:55:02.554Z,1011.97
2019-05-01T02:56:02.540Z,1012.00
2019-05-01T02:57:02.520Z,1011.99
2019-05-01T02:58:02.501Z,1011.95
2019-05-01T02:59:02.486Z,1011.98
2019-05-01T03:00:02.487Z,1011.95
2019-05-01T03:01:02.448Z,1011.93
2019-05-01T03:02:02.438Z,1011.92
2019-05-01T03:03:02.407Z,1011.93
2019-05-01T03:04:02.389Z,1011.91
2019-05-01T03:05:02.372Z,1011.96
2019-05-01T03:06:02.372Z,1011.92
2019-05-01T03:07:02.333Z,1011.92
2019-05-01T03:08:02.311Z,1011.91
2019-05-01T03:09:02.301Z,1011.93
2019-05-01T03:10:02.297Z,1011.87
2019-05-01T03:11:02.260Z,1011.89
2019-05-01T03:12:02.243Z,1011.91
2019-05-01T03:13:02.232Z,1011.92
2019-05-01T03:14:02.209Z,1011.93
2019-05-01T03:15:02.184Z,1011.91
2019-05-01T03:16:02.166Z,1011.92
2019-05-01T03:17:02.149Z,1011.91
2019-05-01T03:18:02.135Z,1011.94
2019-05-01T03:19:02.124Z,1011.94
2019-05-01T03:20:02.121Z,1011.93
2019-05-01T03:21:02.076Z,1011.91
2019-05-01T03:22:02.067Z,1011.91
2019-05-01T03:23:02.032Z,1011.91
2019-05-01T03:24:02.032Z,1011.91
2019-05-01T03:25:01.999Z,1011.91
2019-05-01T03:26:01.981Z,1011.90
2019-05-01T03:27:01.966Z,1011.91
2019-05-01T03:28:01.939Z,1011.86
2019-05-01T03:29:01.936Z,1011.86
2019-05-01T03:30:01.914Z,1011.84
2019-05-01T03:31:01.885Z,1011.84
2019-05-01T03:32:17.177Z,1011.85
2019-05-01T03:33:01.853Z,1011.86
2019-05-01T03:34:01.838Z,1011.87
2019-05-01T03:35:01.811Z,1011.84
2019-05-01T03:36:01.803Z,1011.80
2019-05-01T03:37:01.776Z,1011.80
2019-05-01T03:38:01.755Z,1011.76
2019-05-01T03:39:01.734Z,1011.77
2019-05-01T03:40:01.717Z,1011.77
2019-05-01T03:41:01.699Z,1011.76
2019-05-01T03:42:01.679Z,1011.73
2019-05-01T03:43:01.667Z,1011.74
2019-05-01T03:44:01.641Z,1011.76
2019-05-01T03:45:01.626Z,1011.73
2019-05-01T03:46:01.603Z,1011.74
2019-05-01T03:47:01.586Z,1011.73
2019-05-01T03:48:01.567Z,1011.72
2019-05-01T03:49:01.558Z,1011.71
2019-05-01T03:50:01.532Z,1011.72
2019-05-01T03:51:01.515Z,1011.68
2019-05-01T03:52:01.491Z,1011.72
2019-05-01T03:53:01.473Z,1011.69
2019-05-01T03:54:01.469Z,1011.71
2019-05-01T03:55:01.435Z,1011.69
2019-05-01T03:56:01.415Z,1011.74
2019-05-01T03:57:01.405Z,1011.71
2019-05-01T03:58:01.382Z,1011.66
2019-05-01T03:59:01.363Z,1011.65
2019-05-01T04:00:01.343Z,1011.71
2019-05-01T04:01:01.321Z,1011.68
2019-05-01T04:02:01.357Z,1011.65
2019-05-01T04:03:01.286Z,1011.69
2019-05-01T04:04:01.267Z,1011.71
2019-05-01T04:05:01.259Z,1011.68
2019-05-01T04:06:01.235Z,1011.71
2019-05-01T04:07:01.211Z,1011.74
2019-05-01T04:08:01.192Z,1011.72
2019-05-01T04:09:01.207Z,1011.72
2019-05-01T04:10:01.223Z,1011.73
2019-05-01T04:11:01.137Z,1011.72
2019-05-01T04:12:01.120Z,1011.70
2019-05-01T04:13:01.105Z,1011.73
2019-05-01T04:14:01.083Z,1011.75
2019-05-01T04:15:01.060Z,1011.71
2019-05-01T04:16:01.038Z,1011.74
2019-05-01T04:17:01.025Z,1011.74
2019-05-01T04:18:01.004Z,1011.77
2019-05-01T04:19:00.984Z,1011.78
2019-05-01T04:20:00.977Z,1011.77
2019-05-01T04:21:00.951Z,1011.74
2019-05-01T04:22:00.933Z,1011.78
2019-05-01T04:23:00.907Z,1011.76
2019-05-01T04:24:00.895Z,1011.74
2019-05-01T04:25:00.882Z,1011.80
2019-05-01T04:26:00.862Z,1011.79
2019-05-01T04:27:00.849Z,1011.76
2019-05-01T04:28:00.819Z,1011.77
2019-05-01T04:29:00.804Z,1011.80
2019-05-01T04:30:00.811Z,1011.79
2019-05-01T04:31:00.765Z,1011.81
2019-05-01T04:32:00.759Z,1011.80
2019-05-01T04:33:00.749Z,1011.77
2019-05-01T04:34:00.830Z,1011.82
2019-05-01T04:35:00.692Z,1011.76
2019-05-01T04:36:00.668Z,1011.82
2019-05-01T04:37:00.678Z,1011.81
2019-05-01T04:38:00.632Z,1011.82
2019-05-01T04:39:00.619Z,1011.83
2019-05-01T04:40:00.625Z,1011.85
2019-05-01T04:41:00.619Z,1011.85
2019-05-01T04:42:00.583Z,1011.87
2019-05-01T04:43:00.661Z,1011.79
2019-05-01T04:44:01.492Z,1011.83
2019-05-01T04:45:00.498Z,1011.85
2019-05-01T04:46:00.482Z,1011.88
2019-05-01T04:47:00.460Z,1011.88
2019-05-01T04:48:00.446Z,1011.91
2019-05-01T04:49:00.430Z,1011.89
2019-05-01T04:50:00.411Z,1011.93
2019-05-01T04:51:00.434Z,1011.90
2019-05-01T04:52:00.366Z,1011.94
2019-05-01T04:53:00.347Z,1011.93
2019-05-01T04:54:00.329Z,1011.94
2019-05-01T04:55:00.357Z,1011.93
2019-05-01T04:56:00.298Z,1011.91
2019-05-01T04:57:00.270Z,1011.93
2019-05-01T04:58:00.299Z,1011.91
2019-05-01T04:59:00.239Z,1011.96
2019-05-01T05:00:00.213Z,1011.97
2019-05-01T05:01:00.193Z,1011.98
2019-05-01T05:02:00.177Z,1011.95
2019-05-01T05:03:04.950Z,1011.96
2019-05-01T05:04:00.153Z,1011.99
2019-05-01T05:05:00.141Z,1011.98
2019-05-01T05:06:00.095Z,1012.00
2019-05-01T05:07:00.084Z,1011.94
2019-05-01T05:08:00.063Z,1011.96
2019-05-01T05:09:00.043Z,1012.00
2019-05-01T05:10:00.021Z,1012.02
2019-05-01T05:11:00.005Z,1012.05
2019-05-01T05:11:59.987Z,1012.09
2019-05-01T05:12:59.976Z,1012.02
2019-05-01T05:13:59.974Z,1012.02
2019-05-01T05:14:59.927Z,1012.00
2019-05-01T05:15:59.908Z,1012.01
2019-05-01T05:16:59.889Z,1011.99
2019-05-01T05:17:59.870Z,1012.03
2019-05-01T05:18:59.851Z,1012.04
2019-05-01T05:19:59.834Z,1012.09
2019-05-01T05:20:59.811Z,1012.05
2019-05-01T05:21:59.817Z,1012.05
2019-05-01T05:22:59.775Z,1012.01
2019-05-01T05:23:59.755Z,1012.02
2019-05-01T05:24:59.738Z,1012.04
2019-05-01T05:25:59.722Z,1012.01
2019-05-01T05:26:59.701Z,1012.05
2019-05-01T05:27:59.681Z,1012.06
2019-05-01T05:28:59.662Z,1012.09
2019-05-01T05:29:59.647Z,1012.08
2019-05-01T05:30:59.622Z,1012.09
2019-05-01T05:31:59.635Z,1012.10
2019-05-01T05:32:59.588Z,1012.08
2019-05-01T05:33:59.565Z,1012.06
2019-05-01T05:34:59.551Z,1012.07
2019-05-01T05:35:59.528Z,1012.09
2019-05-01T05:36:59.508Z,1012.09
2019-05-01T05:37:59.490Z,1012.11
2019-05-01T05:38:59.469Z,1012.10
2019-05-01T05:40:00.312Z,1012.08
2019-05-01T05:41:00.393Z,1012.04
2019-05-01T05:41:59.458Z,1012.02
2019-05-01T05:42:59.397Z,1012.04
2019-05-01T05:43:59.373Z,1012.03
2019-05-01T05:44:59.392Z,1012.01
2019-05-01T05:45:59.336Z,1012.05
2019-05-01T05:46:59.326Z,1012.08
2019-05-01T05:47:59.303Z,1012.08
2019-05-01T05:48:59.285Z,1012.08
2019-05-01T05:49:59.266Z,1012.05
2019-05-01T05:50:59.240Z,1012.04
2019-05-01T05:51:59.233Z,1012.02
2019-05-01T05:52:59.210Z,1012.06
2019-05-01T05:53:59.183Z,1012.04
2019-05-01T05:54:59.170Z,1012.02
2019-05-01T05:55:59.169Z,1012.06
2019-05-01T05:56:59.161Z,1012.02
2019-05-01T05:57:59.109Z,1012.02
2019-05-01T05:58:59.092Z,1012.03
2019-05-01T05:59:59.082Z,1011.98
2019-05-01T06:00:59.053Z,1011.97
2019-05-01T06:01:59.054Z,1012.04
2019-05-01T06:02:59.016Z,1011.99
2019-05-01T06:03:58.997Z,1012.06
2019-05-01T06:04:58.982Z,1012.01
2019-05-01T06:05:58.958Z,1012.02
2019-05-01T06:06:58.939Z,1011.98
2019-05-01T06:07:58.919Z,1012.00
2019-05-01T06:08:58.902Z,1011.98
2019-05-01T06:09:58.882Z,1011.99
2019-05-01T06:11:00.179Z,1012.01
2019-05-01T06:11:58.847Z,1012.01
2019-05-01T06:12:58.825Z,1011.94
2019-05-01T06:13:58.994Z,1011.99
2019-05-01T06:15:02.406Z,1011.99
2019-05-01T06:15:58.768Z,1011.96
2019-05-01T06:16:58.756Z,1011.95
2019-05-01T06:17:59.256Z,1011.92
2019-05-01T06:18:58.713Z,1011.94
2019-05-01T06:19:58.693Z,1011.94
2019-05-01T06:21:02.198Z,1011.93
2019-05-01T06:21:58.660Z,1011.96
2019-05-01T06:22:58.636Z,1011.91
2019-05-01T06:24:06.118Z,1011.95
2019-05-01T06:24:58.599Z,1011.93
2019-05-01T06:26:00.226Z,1011.96
2019-05-01T06:26:58.561Z,1011.98
2019-05-01T06:27:58.540Z,1011.98
2019-05-01T06:29:00.814Z,1011.93
2019-05-01T06:29:58.546Z,1011.94
2019-05-01T06:30:58.493Z,1011.95
2019-05-01T06:31:59.808Z,1011.92
2019-05-01T06:32:58.448Z,1011.92
2019-05-01T06:33:58.431Z,1011.92
2019-05-01T06:35:02.473Z,1011.88
2019-05-01T06:35:58.389Z,1011.88
2019-05-01T06:36:58.376Z,1011.86
2019-05-01T06:38:00.747Z,1011.90
2019-05-01T06:38:58.336Z,1011.94
2019-05-01T06:39:58.330Z,1011.92
2019-05-01T06:40:59.743Z,1011.93
2019-05-01T06:41:58.290Z,1011.93
2019-05-01T06:42:58.270Z,1011.95
2019-05-01T06:44:02.260Z,1011.94
2019-05-01T06:44:58.218Z,1011.93
2019-05-01T06:45:59.970Z,1011.90
2019-05-01T06:47:03.385Z,1011.90
2019-05-01T06:47:58.169Z,1011.94
2019-05-01T06:48:58.143Z,1011.93
2019-05-01T06:50:01.111Z,1011.96
2019-05-01T06:50:58.108Z,1011.95
2019-05-01T06:51:58.090Z,1011.95
2019-05-01T06:52:59.730Z,1011.95
2019-05-01T06:53:58.054Z,1011.97
2019-05-01T06:54:58.041Z,1011.98
2019-05-01T06:55:58.010Z,1011.96
2019-05-01T06:56:57.992Z,1011.99
2019-05-01T06:57:57.981Z,1011.97
2019-05-01T06:58:57.956Z,1011.99
2019-05-01T06:59:57.937Z,1012.03
2019-05-01T07:00:57.921Z,1011.98
2019-05-01T07:01:58.648Z,1011.99
2019-05-01T07:02:57.889Z,1011.99
2019-05-01T07:04:03.602Z,1012.01
2019-05-01T07:04:57.848Z,1012.01
2019-05-01T07:05:57.822Z,1012.02
2019-05-01T07:07:01.906Z,1012.01
2019-05-01T07:07:57.790Z,1011.99
2019-05-01T07:08:57.816Z,1012.05
2019-05-01T07:09:57.750Z,1012.07
2019-05-01T07:10:57.730Z,1012.03
2019-05-01T07:11:57.712Z,1011.99
2019-05-01T07:12:59.939Z,1012.02
2019-05-01T07:13:57.676Z,1012.00
2019-05-01T07:14:57.657Z,1012.07
2019-05-01T07:16:00.513Z,1012.02
2019-05-01T07:16:57.620Z,1012.02
2019-05-01T07:17:57.719Z,1012.06
2019-05-01T07:18:58.007Z,1012.03
2019-05-01T07:19:57.565Z,1012.04
2019-05-01T07:20:57.550Z,1012.03
2019-05-01T07:21:57.526Z,1012.03
2019-05-01T07:22:57.586Z,1012.04
2019-05-01T07:23:57.486Z,1012.01
2019-05-01T07:24:59.030Z,1012.07
2019-05-01T07:25:57.448Z,1012.04
2019-05-01T07:26:59.792Z,1012.05
2019-05-01T07:27:58.504Z,1012.06
2019-05-01T07:28:57.419Z,1012.06
2019-05-01T07:29:57.373Z,1012.07
2019-05-01T07:30:57.357Z,1012.09
2019-05-01T07:31:57.357Z,1012.08
2019-05-01T07:32:57.317Z,1012.04
2019-05-01T07:33:57.344Z,1012.03
2019-05-01T07:35:02.162Z,1012.08
2019-05-01T07:35:57.262Z,1012.04
2019-05-01T07:36:57.241Z,1012.05
2019-05-01T07:37:57.604Z,1012.04
2019-05-01T07:38:57.210Z,1012.03
2019-05-01T07:39:57.189Z,1012.01
2019-05-01T07:40:58.719Z,1012.02
2019-05-01T07:41:57.156Z,1012.01
2019-05-01T07:42:57.134Z,1012.04
2019-05-01T07:43:59.773Z,1012.05
2019-05-01T07:44:57.103Z,1012.04
2019-05-01T07:45:57.074Z,1012.03
2019-05-01T07:46:57.107Z,1012.01
2019-05-01T07:48:00.980Z,1012.03
2019-05-01T07:48:57.019Z,1012.03
2019-05-01T07:49:57.008Z,1012.02
2019-05-01T07:50:56.983Z,1012.03
2019-05-01T07:51:56.964Z,1011.99
2019-05-01T07:52:56.944Z,1012.01
2019-05-01T07:53:59.107Z,1012.02
2019-05-01T07:54:57.884Z,1011.98
2019-05-01T07:55:56.887Z,1011.98
2019-05-01T07:56:58.780Z,1011.98
2019-05-01T07:57:56.849Z,1011.98
2019-05-01T07:58:56.832Z,1011.97
2019-05-01T08:00:01.180Z,1011.94
2019-05-01T08:00:56.795Z,1011.92
2019-05-01T08:01:56.776Z,1011.91
2019-05-01T08:02:56.757Z,1011.89
2019-05-01T08:03:56.738Z,1011.90
2019-05-01T08:04:56.721Z,1011.94
2019-05-01T08:05:56.698Z,1011.97
2019-05-01T08:06:57.372Z,1012.00
2019-05-01T08:07:56.665Z,1012.01
2019-05-01T08:08:56.644Z,1011.96
2019-05-01T08:09:56.625Z,1011.94
2019-05-01T08:10:59.908Z,1011.97
2019-05-01T08:11:56.643Z,1011.98
2019-05-01T08:13:00.334Z,1011.94
2019-05-01T08:14:07.030Z,1011.97
2019-05-01T08:14:56.554Z,1011.90
2019-05-01T08:15:56.520Z,1011.91
2019-05-01T08:16:56.502Z,1011.92
2019-05-01T08:17:56.479Z,1011.91
2019-05-01T08:18:59.142Z,1011.94
2019-05-01T08:19:56.441Z,1011.98
2019-05-01T08:20:56.423Z,1011.95
2019-05-01T08:21:57.031Z,1011.95
2019-05-01T08:22:56.387Z,1012.00
2019-05-01T08:23:56.376Z,1011.97
2019-05-01T08:24:58.594Z,1011.95
2019-05-01T08:25:56.330Z,1011.99
2019-05-01T08:26:56.312Z,1012.01
2019-05-01T08:27:58.095Z,1011.94
2019-05-01T08:28:56.276Z,1011.93
2019-05-01T08:29:56.257Z,1011.91
2019-05-01T08:30:56.240Z,1011.93
2019-05-01T08:31:58.871Z,1011.98
2019-05-01T08:32:56.202Z,1011.95
2019-05-01T08:33:56.183Z,1011.93
2019-05-01T08:35:00.617Z,1011.92
2019-05-01T08:35:56.147Z,1011.94
2019-05-01T08:36:56.133Z,1011.96
2019-05-01T08:37:58.553Z,1012.00
2019-05-01T08:38:56.102Z,1011.97
2019-05-01T08:39:56.081Z,1011.97
2019-05-01T08:40:56.795Z,1012.00
2019-05-01T08:41:56.059Z,1011.98
2019-05-01T08:42:56.022Z,1011.97
2019-05-01T08:43:56.028Z,1011.96
2019-05-01T08:44:59.883Z,1011.96
2019-05-01T08:45:55.968Z,1011.99
2019-05-01T08:46:55.946Z,1011.98
2019-05-01T08:47:56.791Z,1011.97
2019-05-01T08:48:55.909Z,1011.99
2019-05-01T08:49:55.890Z,1011.98
2019-05-01T08:50:59.126Z,1011.99
2019-05-01T08:51:55.857Z,1012.01
2019-05-01T08:52:55.836Z,1011.96
2019-05-01T08:53:57.934Z,1012.00
2019-05-01T08:54:55.819Z,1011.99
2019-05-01T08:55:55.919Z,1011.97
2019-05-01T08:56:58.066Z,1011.96
2019-05-01T08:57:55.766Z,1011.92
2019-05-01T08:58:56.171Z,1011.99
2019-05-01T09:00:00.181Z,1011.98
2019-05-01T09:00:55.695Z,1011.97
2019-05-01T09:02:09.156Z,1012.02
2019-05-01T09:03:07.929Z,1011.97
2019-05-01T09:03:55.831Z,1011.93
2019-05-01T09:05:02.149Z,1011.94
2019-05-01T09:05:57.531Z,1011.95
2019-05-01T09:06:55.748Z,1011.99
2019-05-01T09:07:56.369Z,1011.95
2019-05-01T09:08:55.557Z,1011.97
2019-05-01T09:09:55.635Z,1011.94
2019-05-01T09:11:00.395Z,1011.94
2019-05-01T09:11:55.641Z,1011.91
2019-05-01T09:12:55.487Z,1011.93
2019-05-01T09:13:59.015Z,1011.89
2019-05-01T09:14:55.446Z,1011.89
2019-05-01T09:15:55.457Z,1011.91
2019-05-01T09:16:55.442Z,1011.91
2019-05-01T09:17:55.384Z,1011.92
2019-05-01T09:18:55.374Z,1011.91
2019-05-01T09:19:55.365Z,1011.93
2019-05-01T09:20:55.339Z,1011.88
2019-05-01T09:21:55.311Z,1011.89
2019-05-01T09:22:55.295Z,1011.86
2019-05-01T09:23:55.283Z,1011.86
2019-05-01T09:24:59.898Z,1011.82
2019-05-01T09:25:55.350Z,1011.84
2019-05-01T09:26:55.607Z,1011.83
2019-05-01T09:27:55.214Z,1011.81
2019-05-01T09:28:55.204Z,1011.83
2019-05-01T09:29:56.094Z,1011.84
2019-05-01T09:31:01.278Z,1011.78
2019-05-01T09:31:55.986Z,1011.82
2019-05-01T09:32:55.660Z,1011.77
2019-05-01T09:33:55.149Z,1011.79
2019-05-01T09:34:58.070Z,1011.73
2019-05-01T09:35:56.113Z,1011.73
2019-05-01T09:36:55.364Z,1011.73
2019-05-01T09:37:55.081Z,1011.72
2019-05-01T09:38:55.012Z,1011.71
2019-05-01T09:39:54.995Z,1011.72
2019-05-01T09:40:54.972Z,1011.68
2019-05-01T09:41:54.962Z,1011.67
2019-05-01T09:42:59.267Z,1011.65
2019-05-01T09:43:54.918Z,1011.61
2019-05-01T09:44:54.933Z,1011.62
2019-05-01T09:45:54.894Z,1011.63
2019-05-01T09:46:54.878Z,1011.64
2019-05-01T09:47:54.956Z,1011.63
2019-05-01T09:48:55.133Z,1011.61
2019-05-01T09:49:55.991Z,1011.66
2019-05-01T09:50:54.803Z,1011.64
2019-05-01T09:51:54.777Z,1011.63
2019-05-01T09:52:59.363Z,1011.63
2019-05-01T09:53:54.794Z,1011.65
2019-05-01T09:54:54.733Z,1011.67
2019-05-01T09:55:54.714Z,1011.62
2019-05-01T09:56:54.701Z,1011.68
2019-05-01T09:57:54.693Z,1011.66
2019-05-01T09:58:54.657Z,1011.68
2019-05-01T09:59:54.640Z,1011.66
2019-05-01T10:00:55.488Z,1011.65
2019-05-01T10:01:54.812Z,1011.65
2019-05-01T10:02:54.972Z,1011.57
2019-05-01T10:03:55.092Z,1011.61
2019-05-01T10:04:55.288Z,1011.59
2019-05-01T10:05:54.831Z,1011.59
2019-05-01T10:06:57.570Z,1011.60
2019-05-01T10:07:54.635Z,1011.61
2019-05-01T10:08:54.482Z,1011.60
2019-05-01T10:09:54.464Z,1011.56
2019-05-01T10:10:54.486Z,1011.58
2019-05-01T10:11:54.433Z,1011.55
2019-05-01T10:12:54.417Z,1011.51
2019-05-01T10:13:58.366Z,1011.54
2019-05-01T10:14:54.378Z,1011.50
2019-05-01T10:15:54.943Z,1011.54
2019-05-01T10:16:54.708Z,1011.53
2019-05-01T10:17:54.730Z,1011.51
2019-05-01T10:18:54.877Z,1011.53
2019-05-01T10:19:54.767Z,1011.54
2019-05-01T10:20:54.755Z,1011.54
2019-05-01T10:21:57.853Z,1011.51
2019-05-01T10:22:59.098Z,1011.46
2019-05-01T10:23:54.228Z,1011.45
2019-05-01T10:24:54.256Z,1011.49
2019-05-01T10:25:54.192Z,1011.49
2019-05-01T10:26:55.247Z,1011.43
2019-05-01T10:27:54.192Z,1011.46
2019-05-01T10:28:54.165Z,1011.44
2019-05-01T10:29:56.826Z,1011.41
2019-05-01T10:30:54.106Z,1011.39
2019-05-01T10:31:54.082Z,1011.37
2019-05-01T10:32:57.762Z,1011.41
2019-05-01T10:33:54.056Z,1011.35
2019-05-01T10:34:56.564Z,1011.36
2019-05-01T10:35:54.035Z,1011.32
2019-05-01T10:36:54.662Z,1011.33
2019-05-01T10:37:53.983Z,1011.33
2019-05-01T10:38:53.963Z,1011.35
2019-05-01T10:39:55.294Z,1011.30
2019-05-01T10:40:53.953Z,1011.28
2019-05-01T10:41:53.908Z,1011.29
2019-05-01T10:42:53.896Z,1011.32
2019-05-01T10:43:53.907Z,1011.31
2019-05-01T10:44:53.874Z,1011.23
2019-05-01T10:45:53.842Z,1011.28
2019-05-01T10:46:53.822Z,1011.23
2019-05-01T10:47:53.807Z,1011.19
2019-05-01T10:48:53.818Z,1011.18
2019-05-01T10:49:53.772Z,1011.21
2019-05-01T10:50:53.757Z,1011.19
2019-05-01T10:51:53.735Z,1011.13
2019-05-01T10:52:53.731Z,1011.16
2019-05-01T10:53:53.706Z,1011.12
2019-05-01T10:54:53.686Z,1011.11
2019-05-01T10:55:53.718Z,1011.13
2019-05-01T10:56:53.649Z,1011.18
2019-05-01T10:57:53.634Z,1011.18
2019-05-01T10:58:53.615Z,1011.15
2019-05-01T10:59:53.597Z,1011.16
2019-05-01T11:00:53.590Z,1011.15
2019-05-01T11:01:53.576Z,1011.08
2019-05-01T11:02:53.557Z,1011.07
2019-05-01T11:03:53.590Z,1011.09
2019-05-01T11:04:53.649Z,1011.05
2019-05-01T11:05:55.957Z,1011.08
2019-05-01T11:06:53.485Z,1011.02
2019-05-01T11:07:53.467Z,1011.06
2019-05-01T11:08:53.455Z,1011.06
2019-05-01T11:09:53.457Z,1011.03
2019-05-01T11:10:53.422Z,1010.95
2019-05-01T11:11:53.405Z,1010.96
2019-05-01T11:12:53.389Z,1010.92
2019-05-01T11:13:53.375Z,1010.92
2019-05-01T11:14:53.354Z,1010.91
2019-05-01T11:15:53.354Z,1010.90
2019-05-01T11:16:53.360Z,1010.91
2019-05-01T11:17:53.304Z,1010.92
2019-05-01T11:18:53.398Z,1010.89
2019-05-01T11:19:53.277Z,1010.86
2019-05-01T11:20:53.264Z,1010.89
2019-05-01T11:21:53.240Z,1010.82
2019-05-01T11:22:53.221Z,1010.82
2019-05-01T11:23:53.202Z,1010.85
2019-05-01T11:24:53.223Z,1010.83
2019-05-01T11:25:53.173Z,1010.76
2019-05-01T11:26:53.155Z,1010.78
2019-05-01T11:27:53.138Z,1010.78
2019-05-01T11:28:53.119Z,1010.77
2019-05-01T11:29:53.106Z,1010.78
2019-05-01T11:30:53.092Z,1010.75
2019-05-01T11:31:53.079Z,1010.72
2019-05-01T11:32:53.067Z,1010.75
2019-05-01T11:33:53.062Z,1010.82
2019-05-01T11:34:53.027Z,1010.82
2019-05-01T11:35:53.012Z,1010.80
2019-05-01T11:36:52.997Z,1010.81
2019-05-01T11:37:52.986Z,1010.78
2019-05-01T11:38:52.968Z,1010.78
2019-05-01T11:39:52.958Z,1010.82
2019-05-01T11:40:52.938Z,1010.73
2019-05-01T11:41:52.922Z,1010.75
2019-05-01T11:42:52.926Z,1010.75
2019-05-01T11:43:52.896Z,1010.68
2019-05-01T11:44:52.882Z,1010.73
2019-05-01T11:45:52.867Z,1010.70
2019-05-01T11:46:52.855Z,1010.67
2019-05-01T11:47:52.838Z,1010.64
2019-05-01T11:48:52.827Z,1010.66
2019-05-01T11:49:52.812Z,1010.62
2019-05-01T11:50:52.937Z,1010.62
2019-05-01T11:51:52.785Z,1010.65
2019-05-01T11:52:52.773Z,1010.69
2019-05-01T11:53:52.760Z,1010.75
2019-05-01T11:54:52.752Z,1010.72
2019-05-01T11:55:52.732Z,1010.67
2019-05-01T11:56:52.719Z,1010.66
2019-05-01T11:57:52.708Z,1010.65
2019-05-01T11:58:52.695Z,1010.64
2019-05-01T11:59:52.680Z,1010.64
2019-05-01T12:00:52.686Z,1010.61
2019-05-01T12:01:52.657Z,1010.60
2019-05-01T12:02:52.645Z,1010.62
2019-05-01T12:03:52.656Z,1010.57
2019-05-01T12:04:52.699Z,1010.57